NOTICIAS

26/04/2017Advertencia: nivel amarillo por vientos fuertes y persistentes-Maldonado y Rocha 27 de abril de 2017ADVERTENCIA A LA POBLACIÓNAdvertencia: nivel amarilloFenómeno: vientos fuertes y persistentesZona: Maldonado y RochaEsta advertencia rige a partir de las 17:00 horas del miércoles 26 de abril en los departamentos de Maldonado y Rocha por vientos fuertes y persistentes de entre 60 y 80km/h, con ráfagas superiores.Esta advertencia se actualizará a las 00:00 horas del jueves 27.Continuaremos monitoreando la situación e informaremos ante eventuales cambios.Dra. (Phd) Madeleine RenomPresidente de Inumet

Productos aeronáuticos

  • SIGMET
  • METAR / SPECI
  • TAF
  • AIREP
  • Aviso de aeródromo
  • Pronárea
  • Carta superficie

Mensajes METAR de la última hora

SUAA 291500Z 30008KT CAVOK 21/13 Q1022
SUCA 291500Z XXXXXKT CAVOK 22/10 Q1020
SUDU 291500Z 28005KT CAVOK 21/12 Q1022
SULS 291500Z 31006KT CAVOK 22/13 Q1021
SUMU 291500Z 28009KT CAVOK 21/13 Q1021 NOSIG
SUSO 291500Z 04005KT CAVOK 22/11 Q1023

Mensajes METAR de la última hora - Internacionales


Argentina
SAAR 291500Z 34009KT CAVOK 22/11 Q1021
SABE 291500Z 35007KT CAVOK 20/14 Q1022
SACO 291500Z 09003KT CAVOK 25/09 Q1020
SAEZ 291500Z 31011KT CAVOK 23/10 Q1021
SAME 291500Z 09002KT CAVOK 18/08 Q1019
Bolivia
SLCP 291500Z 17010KT 9999 NSC 23/18 Q1021
SLLP 291500Z 14005KT 9999 SCT015 FEW017CB SCT070 10/02 Q1041
Brasil
SBBR 291500Z 06011KT 9999 SCT030 26/18 Q1021
SBFI 291500Z 09004KT CAVOK 20/13 Q1023
SBFL 291500Z 34007KT CAVOK 21/09 Q1024
SBGR 291500Z 05009KT 9999 BKN021 20/15 Q1024
SBPA 291500Z 29004KT 210V320 CAVOK 19/11 Q1025
SBRJ 291500Z 33005KT 9999 FEW012 SCT025 BKN070 23/18 Q1022
SBSP 291500Z 08007KT 9999 OVC022 19/13 Q1024
Colombia
SKBO 291500Z 09004KT 9999 VCSH BKN020 SCT070 17/10 A3038 RMKVCSH/E/SE
Chile
SCCI 291500Z 27015KT 9999 FEW030 08/02 Q0994 NOSIG
SCEL 291500Z 02003KT 340V110 CAVOK 19/01 Q1016 NOSIG
Ecuador
SEQM 291500Z 16003KT 080V220 9999 SCT026 SCT300 18/10 Q1027 NOSIG RMK A3032
EEUU
KMIA 291453Z 11015KT 10SM SCT028 BKN040 BKN250 29/20 A3015 RMK AO2 SLP211 T02890200 53010 $
KDCA 291452Z 25008KT 10SM SCT090 OVC250 27/17 A3010 RMK AO2 SLP194 T02720172 50009
KIAD 291452Z 21004KT 10SM FEW050 BKN095 BKN160 BKN210 26/17 A3009 RMK AO2 RAB08E19 SLP188 CB DSNT NE P0000 60000 T02560167 50000
KJFK 291451Z 23009KT 10SM FEW010 SCT080 SCT150 BKN250 23/20 A3001 RMK AO2 SLP162 T02280200 50008 $
KLGA 291451Z 26010G17KT 10SM FEW035 FEW080 SCT150 BKN250 26/18 A2999 RMK AO2 PRESFR SLP154 T02610178 50007
España
LEBL 291500Z 22013KT 9999 BKN039 15/07 Q1015 NOSIG
LEMD 291500Z VRB02KT 4000 -DZ BR SCT008 OVC012 12/11 Q1011 TEMPO RA BKN009
Francia
LFPO 291500Z 11010KT 090V150 CAVOK 16/03 Q1013 NOSIG
Inglaterra
EGLL 291520Z AUTO 15010KT 9999 BKN048 14/03 Q1013
EGLL 291450Z AUTO 18009KT 130V220 9999 BKN048 16/03 Q1013
Panamá
MPTO 291500Z 17004KT 8000 SCT018CB BKN090 30/26 Q1011 NOSIG
Paraguay
SGAS 291500Z 11006KT 040V160 CAVOK 24/11 Q1021
Venezuela
SVMI 291500Z 36004KT 9999 SCT016 31/20 Q1013

* Datos extraidos del Text DataServer de la NOAA (NOAA TEXT DATA SERVER)

Instituto Uruguayo de Meteorología

Dr. Javier Barrios Amorín 1488 - CP 11200
Mesa Central (598) 1895

Montevideo - Uruguay